createdAt,value
2017-09-18T00:00:15.103Z,0.00
2017-09-18T00:01:15.517Z,0.00
2017-09-18T00:02:15.952Z,0.00
2017-09-18T00:03:16.380Z,0.00
2017-09-18T00:04:16.811Z,0.00
2017-09-18T00:05:38.400Z,0.00
2017-09-18T00:06:17.675Z,0.00
2017-09-18T00:07:18.096Z,0.00
2017-09-18T00:08:18.525Z,0.00
2017-09-18T00:09:18.959Z,0.00
2017-09-18T00:10:19.385Z,0.00
2017-09-18T00:11:40.979Z,0.00
2017-09-18T00:12:20.246Z,0.00
2017-09-18T00:13:20.677Z,0.00
2017-09-18T00:14:21.108Z,0.00
2017-09-18T00:15:21.556Z,0.00
2017-09-18T00:16:21.974Z,0.00
2017-09-18T00:17:43.561Z,0.00
2017-09-18T00:18:22.828Z,0.00
2017-09-18T00:19:23.264Z,0.00
2017-09-18T00:20:23.686Z,0.00
2017-09-18T00:21:24.116Z,0.00
2017-09-18T00:22:24.547Z,0.00
2017-09-18T00:23:46.141Z,0.00
2017-09-18T00:24:25.408Z,0.00
2017-09-18T00:25:25.845Z,0.00
2017-09-18T00:26:26.267Z,0.00
2017-09-18T00:27:26.703Z,0.00
2017-09-18T00:28:27.126Z,0.00
2017-09-18T00:29:48.727Z,0.00
2017-09-18T00:30:27.984Z,0.00
2017-09-18T00:31:28.422Z,0.00
2017-09-18T00:32:28.857Z,0.00
2017-09-18T00:33:29.279Z,0.00
2017-09-18T00:34:29.721Z,0.00
2017-09-18T00:35:51.305Z,0.00
2017-09-18T00:36:30.564Z,0.00
2017-09-18T00:37:30.998Z,0.00
2017-09-18T00:38:31.436Z,0.00
2017-09-18T00:39:31.854Z,0.00
2017-09-18T00:40:32.290Z,0.00
2017-09-18T00:41:53.881Z,0.00
2017-09-18T00:42:33.158Z,0.00
2017-09-18T00:43:33.575Z,0.00
2017-09-18T00:44:34.006Z,0.00
2017-09-18T00:45:34.433Z,0.00
2017-09-18T00:46:34.869Z,0.00
2017-09-18T00:47:56.461Z,0.00
2017-09-18T00:48:35.726Z,0.00
2017-09-18T00:49:36.167Z,0.00
2017-09-18T00:50:36.591Z,0.00
2017-09-18T00:51:37.014Z,0.00
2017-09-18T00:52:37.447Z,0.00
2017-09-18T00:53:59.035Z,0.00
2017-09-18T00:54:38.308Z,0.00
2017-09-18T00:55:38.733Z,0.00
2017-09-18T00:56:39.164Z,0.00
2017-09-18T00:57:39.592Z,0.00
2017-09-18T00:58:40.024Z,0.00
2017-09-18T01:00:01.611Z,0.00
2017-09-18T01:00:40.896Z,0.00
2017-09-18T01:01:41.313Z,0.00
2017-09-18T01:02:41.774Z,0.00
2017-09-18T01:03:42.172Z,0.00
2017-09-18T01:04:42.624Z,0.00
2017-09-18T01:06:04.190Z,0.00
2017-09-18T01:06:43.466Z,0.00
2017-09-18T01:07:43.900Z,0.00
2017-09-18T01:08:44.327Z,0.00
2017-09-18T01:09:44.762Z,0.00
2017-09-18T01:10:45.180Z,0.00
2017-09-18T01:12:06.785Z,0.00
2017-09-18T01:12:46.046Z,0.00
2017-09-18T01:13:46.474Z,0.00
2017-09-18T01:14:46.905Z,0.00
2017-09-18T01:15:47.326Z,0.00
2017-09-18T01:16:47.753Z,0.00
2017-09-18T01:18:09.353Z,0.00
2017-09-18T01:18:48.616Z,0.00
2017-09-18T01:19:49.041Z,0.00
2017-09-18T01:20:49.471Z,0.00
2017-09-18T01:21:49.903Z,0.00
2017-09-18T01:22:50.332Z,0.00
2017-09-18T01:24:11.942Z,0.00
2017-09-18T01:24:51.188Z,0.00
2017-09-18T01:25:51.624Z,0.00
2017-09-18T01:26:52.055Z,0.00
2017-09-18T01:27:52.494Z,0.00
2017-09-18T01:28:52.918Z,0.00
2017-09-18T01:30:14.499Z,0.00
2017-09-18T01:30:53.803Z,0.00
2017-09-18T01:31:54.198Z,0.00
2017-09-18T01:32:54.627Z,0.00
2017-09-18T01:33:55.059Z,0.00
2017-09-18T01:34:55.485Z,0.00
2017-09-18T01:36:17.077Z,0.00
2017-09-18T01:36:56.349Z,0.00
2017-09-18T01:37:56.779Z,0.00
2017-09-18T01:38:57.205Z,0.00
2017-09-18T01:39:57.629Z,0.00
2017-09-18T01:40:58.058Z,0.00
2017-09-18T01:42:19.651Z,0.00
2017-09-18T01:42:58.921Z,0.00
2017-09-18T01:43:59.351Z,0.00
2017-09-18T01:44:59.782Z,0.00
2017-09-18T01:46:00.210Z,0.00
2017-09-18T01:47:00.636Z,0.00
2017-09-18T01:48:22.231Z,0.00
2017-09-18T01:49:01.500Z,0.00
2017-09-18T01:50:01.925Z,0.00
2017-09-18T01:51:02.353Z,0.00
2017-09-18T01:52:02.778Z,0.00
2017-09-18T01:53:03.213Z,0.00
2017-09-18T01:54:24.811Z,0.00
2017-09-18T01:55:04.074Z,0.00
2017-09-18T01:56:04.503Z,0.00
2017-09-18T01:57:04.928Z,0.00
2017-09-18T01:58:05.361Z,0.00
2017-09-18T01:59:05.783Z,0.00
2017-09-18T02:00:27.374Z,0.00
2017-09-18T02:01:06.646Z,0.00
2017-09-18T02:02:07.072Z,0.00
2017-09-18T02:03:07.505Z,0.00
2017-09-18T02:04:07.927Z,0.00
2017-09-18T02:05:08.359Z,0.00
2017-09-18T02:06:29.953Z,0.00
2017-09-18T02:07:09.213Z,0.00
2017-09-18T02:08:09.648Z,0.00
2017-09-18T02:09:10.078Z,0.00
2017-09-18T02:10:10.507Z,0.00
2017-09-18T02:11:10.937Z,0.00
2017-09-18T02:12:32.522Z,0.00
2017-09-18T02:13:11.790Z,0.00
2017-09-18T02:14:12.232Z,0.00
2017-09-18T02:15:12.648Z,0.00
2017-09-18T02:16:13.083Z,0.00
2017-09-18T02:17:13.509Z,0.00
2017-09-18T02:18:35.099Z,0.00
2017-09-18T02:19:14.367Z,0.00
2017-09-18T02:20:14.798Z,0.00
2017-09-18T02:21:15.222Z,0.00
2017-09-18T02:22:15.654Z,0.00
2017-09-18T02:23:16.087Z,0.00
2017-09-18T02:24:37.696Z,0.00
2017-09-18T02:25:16.944Z,0.00
2017-09-18T02:26:17.376Z,0.00
2017-09-18T02:27:17.811Z,0.00
2017-09-18T02:28:18.232Z,0.00
2017-09-18T02:29:18.666Z,0.00
2017-09-18T02:30:40.250Z,0.00
2017-09-18T02:31:19.531Z,0.00
2017-09-18T02:32:19.946Z,0.00
2017-09-18T02:33:20.376Z,0.00
2017-09-18T02:34:20.818Z,0.00
2017-09-18T02:35:21.239Z,0.00
2017-09-18T02:36:42.825Z,0.00
2017-09-18T02:37:22.097Z,0.00
2017-09-18T02:38:22.523Z,0.00
2017-09-18T02:39:22.965Z,0.00
2017-09-18T02:40:23.382Z,0.00
2017-09-18T02:41:23.811Z,0.00
2017-09-18T02:42:45.410Z,0.00
2017-09-18T02:43:24.669Z,0.00
2017-09-18T02:44:25.107Z,0.00
2017-09-18T02:45:25.530Z,0.00
2017-09-18T02:46:25.956Z,0.00
2017-09-18T02:47:26.401Z,0.00
2017-09-18T02:48:47.977Z,0.00
2017-09-18T02:49:27.250Z,0.00
2017-09-18T02:50:27.678Z,0.00
2017-09-18T02:51:28.120Z,0.00
2017-09-18T02:52:28.536Z,0.00
2017-09-18T02:53:28.964Z,0.00
2017-09-18T02:54:50.571Z,0.00
2017-09-18T02:55:29.828Z,0.00
2017-09-18T02:56:30.254Z,0.00
2017-09-18T02:57:30.685Z,0.00
2017-09-18T02:58:31.123Z,0.00
2017-09-18T02:59:31.543Z,0.00
2017-09-18T03:00:53.131Z,0.00
2017-09-18T03:01:32.395Z,0.00
2017-09-18T03:02:32.834Z,0.00
2017-09-18T03:03:33.261Z,0.00
2017-09-18T03:04:33.689Z,0.00
2017-09-18T03:05:34.126Z,0.00
2017-09-18T03:06:55.796Z,0.00
2017-09-18T03:07:34.978Z,0.00
2017-09-18T03:08:35.414Z,0.00
2017-09-18T03:09:35.832Z,0.00
2017-09-18T03:10:36.267Z,0.00
2017-09-18T03:11:36.696Z,0.00
2017-09-18T03:12:58.299Z,0.00
2017-09-18T03:13:37.551Z,0.00
2017-09-18T03:14:37.981Z,0.00
2017-09-18T03:15:38.407Z,0.00
2017-09-18T03:16:38.837Z,0.00
2017-09-18T03:17:39.265Z,0.00
2017-09-18T03:19:00.859Z,0.00
2017-09-18T03:19:40.122Z,0.00
2017-09-18T03:20:40.556Z,0.00
2017-09-18T03:21:41.001Z,0.00
2017-09-18T03:22:41.413Z,0.00
2017-09-18T03:23:41.848Z,0.00
2017-09-18T03:25:03.440Z,0.00
2017-09-18T03:25:42.703Z,0.00
2017-09-18T03:26:43.149Z,0.00
2017-09-18T03:27:43.567Z,0.00
2017-09-18T03:28:43.992Z,0.00
2017-09-18T03:29:44.417Z,0.00
2017-09-18T03:31:06.005Z,0.00
2017-09-18T03:31:45.272Z,0.00
2017-09-18T03:32:45.717Z,0.00
2017-09-18T03:33:46.138Z,0.00
2017-09-18T03:34:46.567Z,0.00
2017-09-18T03:35:46.992Z,0.00
2017-09-18T03:37:08.584Z,0.00
2017-09-18T03:37:47.849Z,0.00
2017-09-18T03:38:48.285Z,0.00
2017-09-18T03:39:48.703Z,0.00
2017-09-18T03:40:49.140Z,0.00
2017-09-18T03:41:49.576Z,0.00
2017-09-18T03:43:11.158Z,0.00
2017-09-18T03:43:50.423Z,0.00
2017-09-18T03:44:50.857Z,0.00
2017-09-18T03:45:51.279Z,0.00
2017-09-18T03:46:51.711Z,0.00
2017-09-18T03:47:52.147Z,0.00
2017-09-18T03:49:13.737Z,0.00
2017-09-18T03:49:53.039Z,0.00
2017-09-18T03:50:53.438Z,0.00
2017-09-18T03:51:53.860Z,0.00
2017-09-18T03:52:54.287Z,0.00
2017-09-18T03:53:54.723Z,0.00
2017-09-18T03:55:16.306Z,0.00
2017-09-18T03:55:55.571Z,0.00
2017-09-18T03:56:55.996Z,0.00
2017-09-18T03:57:56.425Z,0.00
2017-09-18T03:58:56.852Z,0.00
2017-09-18T03:59:57.288Z,0.00
2017-09-18T04:01:18.868Z,0.00
2017-09-18T04:01:58.139Z,0.00
2017-09-18T04:02:58.572Z,0.00
2017-09-18T04:03:59.000Z,0.00
2017-09-18T04:04:59.425Z,0.00
2017-09-18T04:05:59.855Z,0.00
2017-09-18T04:07:21.448Z,0.00
2017-09-18T04:08:00.710Z,0.00
2017-09-18T04:09:01.139Z,0.00
2017-09-18T04:10:01.579Z,0.00
2017-09-18T04:11:02.008Z,4.00
2017-09-18T04:12:02.428Z,4.00
2017-09-18T04:13:24.011Z,0.00
2017-09-18T04:14:03.290Z,4.00
2017-09-18T04:15:03.735Z,4.00
2017-09-18T04:16:04.138Z,4.00
2017-09-18T04:17:04.571Z,4.00
2017-09-18T04:18:05.007Z,4.00
2017-09-18T04:19:26.592Z,4.00
2017-09-18T04:20:05.864Z,8.00
2017-09-18T04:21:06.290Z,4.00
2017-09-18T04:22:06.720Z,8.00
2017-09-18T04:23:07.144Z,8.00
2017-09-18T04:24:07.575Z,8.00
2017-09-18T04:25:29.163Z,12.00
2017-09-18T04:26:08.434Z,12.00
2017-09-18T04:27:08.864Z,16.00
2017-09-18T04:28:09.319Z,16.00
2017-09-18T04:29:09.722Z,16.00
2017-09-18T04:30:10.156Z,24.00
2017-09-18T04:31:31.743Z,24.00
2017-09-18T04:32:11.014Z,32.00
2017-09-18T04:33:11.447Z,36.00
2017-09-18T04:34:11.860Z,40.00
2017-09-18T04:35:12.299Z,44.00
2017-09-18T04:36:12.716Z,52.00
2017-09-18T04:37:34.309Z,60.00
2017-09-18T04:38:13.579Z,68.00
2017-09-18T04:39:14.006Z,72.00
2017-09-18T04:40:14.433Z,84.00
2017-09-18T04:41:14.880Z,92.00
2017-09-18T04:42:15.295Z,104.00
2017-09-18T04:43:36.884Z,112.00
2017-09-18T04:44:16.156Z,128.00
2017-09-18T04:45:16.580Z,140.00
2017-09-18T04:46:17.009Z,152.00
2017-09-18T04:47:17.434Z,168.00
2017-09-18T04:48:17.867Z,184.00
2017-09-18T04:49:39.474Z,200.00
2017-09-18T04:50:18.721Z,220.00
2017-09-18T04:51:19.151Z,236.00
2017-09-18T04:52:19.607Z,256.00
2017-09-18T04:53:20.006Z,276.00
2017-09-18T04:54:20.443Z,296.00
2017-09-18T04:55:42.027Z,320.00
2017-09-18T04:56:21.326Z,344.00
2017-09-18T04:57:21.730Z,368.00
2017-09-18T04:58:22.148Z,396.00
2017-09-18T04:59:22.592Z,424.00
2017-09-18T05:00:23.037Z,452.00
2017-09-18T05:01:44.608Z,484.00
2017-09-18T05:02:23.900Z,520.00
2017-09-18T05:03:24.290Z,556.00
2017-09-18T05:04:24.729Z,596.00
2017-09-18T05:05:25.145Z,636.00
2017-09-18T05:06:25.581Z,672.00
2017-09-18T05:07:47.162Z,708.00
2017-09-18T05:08:26.446Z,740.00
2017-09-18T05:09:26.913Z,776.00
2017-09-18T05:10:27.309Z,812.00
2017-09-18T05:11:27.731Z,848.00
2017-09-18T05:12:28.148Z,884.00
2017-09-18T05:13:49.738Z,912.00
2017-09-18T05:14:29.041Z,944.00
2017-09-18T05:15:29.434Z,976.00
2017-09-18T05:16:29.897Z,1008.00
2017-09-18T05:17:30.298Z,1040.00
2017-09-18T05:18:30.718Z,1072.00
2017-09-18T05:19:52.312Z,1104.00
2017-09-18T05:20:31.577Z,1136.00
2017-09-18T05:21:32.005Z,1172.00
2017-09-18T05:22:32.436Z,1204.00
2017-09-18T05:23:32.871Z,1232.00
2017-09-18T05:24:33.298Z,1268.00
2017-09-18T05:25:54.879Z,1296.00
2017-09-18T05:26:34.158Z,1324.00
2017-09-18T05:27:34.577Z,1352.00
2017-09-18T05:28:35.015Z,1376.00
2017-09-18T05:29:35.431Z,1408.00
2017-09-18T05:30:35.866Z,1424.00
2017-09-18T05:31:57.453Z,1456.00
2017-09-18T05:32:36.719Z,1484.00
2017-09-18T05:33:37.161Z,1508.00
2017-09-18T05:34:37.601Z,1528.00
2017-09-18T05:35:38.007Z,1564.00
2017-09-18T05:36:38.440Z,1580.00
2017-09-18T05:38:00.153Z,1604.00
2017-09-18T05:38:39.313Z,1628.00
2017-09-18T05:39:39.803Z,1648.00
2017-09-18T05:40:40.154Z,1688.00
2017-09-18T05:41:40.586Z,1704.00
2017-09-18T05:42:41.019Z,1728.00
2017-09-18T05:44:02.598Z,1756.00
2017-09-18T05:44:41.872Z,1788.00
2017-09-18T05:45:42.291Z,1816.00
2017-09-18T05:46:42.728Z,1832.00
2017-09-18T05:47:43.152Z,1868.00
2017-09-18T05:48:43.582Z,1908.00
2017-09-18T05:50:05.175Z,1944.00
2017-09-18T05:50:44.438Z,1972.00
2017-09-18T05:51:44.881Z,1992.00
2017-09-18T05:52:45.298Z,2028.00
2017-09-18T05:53:45.726Z,2056.00
2017-09-18T05:54:46.185Z,2088.00
2017-09-18T05:56:07.740Z,2116.00
2017-09-18T05:56:47.013Z,2140.00
2017-09-18T05:57:47.446Z,2180.00
2017-09-18T05:58:47.874Z,2212.00
2017-09-18T05:59:48.304Z,2236.00
2017-09-18T06:00:48.730Z,2272.00
2017-09-18T06:02:10.323Z,2288.00
2017-09-18T06:02:49.585Z,2308.00
2017-09-18T06:03:50.013Z,2348.00
2017-09-18T06:04:50.445Z,2328.00
2017-09-18T06:05:50.887Z,2348.00
2017-09-18T06:06:51.298Z,2372.00
2017-09-18T06:08:12.896Z,2412.00
2017-09-18T06:08:52.165Z,2380.00
2017-09-18T06:09:52.586Z,2444.00
2017-09-18T06:10:53.019Z,2456.00
2017-09-18T06:11:53.449Z,2468.00
2017-09-18T06:12:53.876Z,2484.00
2017-09-18T06:14:15.467Z,2496.00
2017-09-18T06:14:54.740Z,2524.00
2017-09-18T06:15:55.169Z,2576.00
2017-09-18T06:16:55.593Z,2604.00
2017-09-18T06:17:56.024Z,2620.00
2017-09-18T06:18:56.446Z,2616.00
2017-09-18T06:20:18.047Z,2644.00
2017-09-18T06:20:57.316Z,2656.00
2017-09-18T06:21:57.751Z,2700.00
2017-09-18T06:22:58.166Z,2692.00
2017-09-18T06:23:58.604Z,2736.00
2017-09-18T06:24:59.027Z,2776.00
2017-09-18T06:26:20.613Z,2812.00
2017-09-18T06:26:59.880Z,2804.00
2017-09-18T06:28:00.317Z,2848.00
2017-09-18T06:29:00.741Z,2872.00
2017-09-18T06:30:01.193Z,2900.00
2017-09-18T06:31:01.629Z,2936.00
2017-09-18T06:32:23.198Z,2944.00
2017-09-18T06:33:02.464Z,3004.00
2017-09-18T06:34:02.892Z,3028.00
2017-09-18T06:35:03.323Z,3080.00
2017-09-18T06:36:03.763Z,3108.00
2017-09-18T06:37:04.186Z,3156.00
2017-09-18T06:38:25.768Z,3204.00
2017-09-18T06:39:05.041Z,3212.00
2017-09-18T06:40:05.472Z,3220.00
2017-09-18T06:41:05.897Z,3264.00
2017-09-18T06:42:06.332Z,3308.00
2017-09-18T06:43:06.756Z,3336.00
2017-09-18T06:44:28.363Z,3364.00
2017-09-18T06:45:07.624Z,3404.00
2017-09-18T06:46:08.051Z,3432.00
2017-09-18T06:47:08.496Z,3432.00
2017-09-18T06:48:08.922Z,3448.00
2017-09-18T06:49:09.406Z,3484.00
2017-09-18T06:50:30.934Z,3528.00
2017-09-18T06:51:10.195Z,3572.00
2017-09-18T06:52:10.628Z,3584.00
2017-09-18T06:53:11.059Z,3620.00
2017-09-18T06:54:11.485Z,3632.00
2017-09-18T06:55:12.010Z,3672.00
2017-09-18T06:56:33.508Z,3668.00
2017-09-18T06:57:12.789Z,3672.00
2017-09-18T06:58:13.202Z,3692.00
2017-09-18T06:59:13.630Z,3712.00
2017-09-18T07:00:14.108Z,3752.00
2017-09-18T07:01:14.495Z,3780.00
2017-09-18T07:02:36.087Z,3820.00
2017-09-18T07:03:15.350Z,3864.00
2017-09-18T07:04:15.802Z,3928.00
2017-09-18T07:05:16.210Z,3980.00
2017-09-18T07:06:16.641Z,3992.00
2017-09-18T07:07:17.073Z,4028.00
2017-09-18T07:08:38.665Z,4096.00
2017-09-18T07:09:17.929Z,4152.00
2017-09-18T07:10:18.359Z,4176.00
2017-09-18T07:11:18.792Z,4216.00
2017-09-18T07:12:19.231Z,4252.00
2017-09-18T07:13:19.649Z,4332.00
2017-09-18T07:14:41.251Z,4400.00
2017-09-18T07:15:20.510Z,4448.00
2017-09-18T07:16:20.939Z,4500.00
2017-09-18T07:17:21.373Z,4576.00
2017-09-18T07:18:21.807Z,4660.00
2017-09-18T07:19:22.230Z,4720.00
2017-09-18T07:20:43.817Z,4780.00
2017-09-18T07:21:23.093Z,4852.00
2017-09-18T07:22:23.520Z,4960.00
2017-09-18T07:23:23.967Z,5052.00
2017-09-18T07:24:24.382Z,5092.00
2017-09-18T07:25:24.816Z,5160.00
2017-09-18T07:26:46.400Z,5240.00
2017-09-18T07:27:25.678Z,5328.00
2017-09-18T07:28:26.139Z,5452.00
2017-09-18T07:29:26.532Z,5600.00
2017-09-18T07:30:26.975Z,5744.00
2017-09-18T07:31:27.406Z,5880.00
2017-09-18T07:32:48.984Z,6048.00
2017-09-18T07:33:28.262Z,6180.00
2017-09-18T07:34:28.712Z,6360.00
2017-09-18T07:35:29.126Z,6612.00
2017-09-18T07:36:29.553Z,6908.00
2017-09-18T07:37:29.985Z,7272.00
2017-09-18T07:38:51.582Z,7632.00
2017-09-18T07:39:30.846Z,8004.00
2017-09-18T07:40:31.282Z,8512.00
2017-09-18T07:41:31.703Z,9096.00
2017-09-18T07:42:32.138Z,9624.00
2017-09-18T07:43:32.567Z,10116.00
2017-09-18T07:44:54.166Z,10628.00
2017-09-18T07:45:33.434Z,10956.00
2017-09-18T07:46:33.866Z,11188.00
2017-09-18T07:47:34.299Z,23872.00
2017-09-18T07:48:34.755Z,42464.00
2017-09-18T07:49:35.166Z,47424.00
2017-09-18T07:50:56.762Z,49248.00
2017-09-18T07:51:36.027Z,49248.00
2017-09-18T07:52:36.468Z,48352.00
2017-09-18T07:53:36.917Z,47872.00
2017-09-18T07:54:37.342Z,47200.00
2017-09-18T07:55:37.782Z,48192.00
2017-09-18T07:56:59.380Z,47616.00
2017-09-18T07:57:38.664Z,48864.00
2017-09-18T07:58:39.100Z,47104.00
2017-09-18T07:59:39.550Z,47776.00
2017-09-18T08:00:39.985Z,46240.00
2017-09-18T08:01:40.427Z,44416.00
2017-09-18T08:03:02.040Z,44704.00
2017-09-18T08:03:41.314Z,44320.00
2017-09-18T08:04:41.757Z,47104.00
2017-09-18T08:05:42.212Z,50624.00
2017-09-18T08:06:42.658Z,48480.00
2017-09-18T08:07:43.103Z,46112.00
2017-09-18T08:09:04.705Z,50048.00
2017-09-18T08:09:44.005Z,49760.00
2017-09-18T08:10:44.442Z,42240.00
2017-09-18T08:11:44.889Z,43200.00
2017-09-18T08:12:45.333Z,45824.00
2017-09-18T08:13:45.783Z,7612.00
2017-09-18T08:15:07.401Z,48864.00
2017-09-18T08:15:46.708Z,50016.00
2017-09-18T08:16:47.136Z,53248.00
2017-09-18T08:17:47.588Z,52608.00
2017-09-18T08:18:48.026Z,55840.00
2017-09-18T08:19:48.482Z,54368.00
2017-09-18T08:21:10.096Z,51808.00
2017-09-18T08:21:49.377Z,49312.00
2017-09-18T08:22:49.828Z,48160.00
2017-09-18T08:23:50.291Z,49760.00
2017-09-18T08:24:50.746Z,55360.00
2017-09-18T08:25:51.183Z,58272.00
2017-09-18T08:27:12.810Z,58720.00
2017-09-18T08:27:52.090Z,59456.00
2017-09-18T08:28:52.541Z,56288.00
2017-09-18T08:29:52.994Z,51776.00
2017-09-18T08:30:53.448Z,43104.00
2017-09-18T08:31:53.897Z,41056.00
2017-09-18T08:33:15.521Z,51520.00
2017-09-18T08:33:54.813Z,57376.00
2017-09-18T08:34:55.255Z,60576.00
2017-09-18T08:35:55.768Z,63200.00
2017-09-18T08:36:56.170Z,62560.00
2017-09-18T08:37:56.620Z,59872.00
2017-09-18T08:39:18.251Z,56128.00
2017-09-18T08:39:57.545Z,54976.00
2017-09-18T08:40:57.989Z,55424.00
2017-09-18T08:41:58.451Z,57600.00
2017-09-18T08:42:58.901Z,60352.00
2017-09-18T08:43:59.356Z,64960.00
2017-09-18T08:45:21.055Z,68704.00
2017-09-18T08:46:00.352Z,70336.00
2017-09-18T08:47:00.777Z,67232.00
2017-09-18T08:48:01.179Z,65312.00
2017-09-18T08:49:01.641Z,63008.00
2017-09-18T08:50:02.102Z,61344.00
2017-09-18T08:51:23.728Z,59904.00
2017-09-18T08:52:03.032Z,62592.00
2017-09-18T08:53:03.467Z,63552.00
2017-09-18T08:54:03.922Z,66784.00
2017-09-18T08:55:04.390Z,68512.00
2017-09-18T08:56:04.841Z,69056.00
2017-09-18T08:57:26.469Z,71616.00
2017-09-18T08:58:05.764Z,52480.00
2017-09-18T08:59:06.228Z,32768.00
2017-09-18T09:00:06.678Z,49600.00
2017-09-18T09:01:07.135Z,65152.00
2017-09-18T09:02:07.599Z,55424.00
2017-09-18T09:03:29.225Z,65536.00
2017-09-18T09:04:08.512Z,64736.00
2017-09-18T09:05:08.977Z,64000.00
2017-09-18T09:06:09.444Z,12740.00
2017-09-18T09:07:09.888Z,10916.00
2017-09-18T09:08:10.356Z,9492.00
2017-09-18T09:09:31.973Z,10344.00
2017-09-18T09:10:11.276Z,11536.00
2017-09-18T09:11:11.730Z,40960.00
2017-09-18T09:12:12.177Z,10788.00
2017-09-18T09:13:12.632Z,45600.00
2017-09-18T09:14:13.085Z,62016.00
2017-09-18T09:15:34.701Z,13460.00
2017-09-18T09:16:13.995Z,10964.00
2017-09-18T09:17:14.459Z,8924.00
2017-09-18T09:18:14.889Z,7884.00
2017-09-18T09:19:15.352Z,8596.00
2017-09-18T09:20:15.793Z,77216.00
2017-09-18T09:21:37.406Z,78912.00
2017-09-18T09:22:16.688Z,80096.00
2017-09-18T09:23:17.139Z,39168.00
2017-09-18T09:24:17.580Z,12776.00
2017-09-18T09:25:18.040Z,8376.00
2017-09-18T09:26:18.493Z,10264.00
2017-09-18T09:27:40.179Z,53920.00
2017-09-18T09:28:19.391Z,57184.00
2017-09-18T09:29:19.833Z,43936.00
2017-09-18T09:30:20.281Z,68736.00
2017-09-18T09:31:20.738Z,67136.00
2017-09-18T09:32:21.174Z,66912.00
2017-09-18T09:33:42.790Z,67360.00
2017-09-18T09:34:22.076Z,70144.00
2017-09-18T09:35:22.523Z,11224.00
2017-09-18T09:36:22.982Z,73472.00
2017-09-18T09:37:23.432Z,76896.00
2017-09-18T09:38:23.877Z,45888.00
2017-09-18T09:39:45.498Z,16384.00
2017-09-18T09:40:24.802Z,14568.00
2017-09-18T09:41:25.245Z,14408.00
2017-09-18T09:42:25.695Z,14748.00
2017-09-18T09:43:26.152Z,9740.00
2017-09-18T09:44:26.612Z,16608.00
2017-09-18T09:45:48.227Z,17120.00
2017-09-18T09:46:27.507Z,37120.00
2017-09-18T09:47:27.968Z,52256.00
2017-09-18T09:48:28.425Z,74848.00
2017-09-18T09:49:28.877Z,32832.00
2017-09-18T09:50:29.332Z,13732.00
2017-09-18T09:51:50.952Z,19904.00
2017-09-18T09:52:30.241Z,84416.00
2017-09-18T09:53:30.706Z,71680.00
2017-09-18T09:54:31.150Z,16240.00
2017-09-18T09:55:31.606Z,10656.00
2017-09-18T09:56:32.059Z,77792.00
2017-09-18T09:57:53.699Z,73792.00
2017-09-18T09:58:32.967Z,77280.00
2017-09-18T09:59:33.427Z,79584.00
2017-09-18T10:00:33.895Z,77024.00
2017-09-18T10:01:34.334Z,74688.00
2017-09-18T10:02:34.783Z,60832.00
2017-09-18T10:03:56.410Z,69184.00
2017-09-18T10:04:35.696Z,77248.00
2017-09-18T10:05:36.159Z,76960.00
2017-09-18T10:06:36.616Z,77152.00
2017-09-18T10:07:37.077Z,77376.00
2017-09-18T10:08:37.534Z,76864.00
2017-09-18T10:09:59.160Z,78336.00
2017-09-18T10:10:38.454Z,80416.00
2017-09-18T10:11:38.904Z,80480.00
2017-09-18T10:12:39.367Z,79744.00
2017-09-18T10:13:39.851Z,78080.00
2017-09-18T10:14:40.283Z,75456.00
2017-09-18T10:16:02.065Z,73152.00
2017-09-18T10:16:41.304Z,72128.00
2017-09-18T10:17:41.658Z,74400.00
2017-09-18T10:18:42.173Z,75840.00
2017-09-18T10:19:42.580Z,77824.00
2017-09-18T10:20:43.048Z,80832.00
2017-09-18T10:22:04.678Z,81184.00
2017-09-18T10:22:43.968Z,82944.00
2017-09-18T10:23:44.429Z,81888.00
2017-09-18T10:24:44.895Z,78912.00
2017-09-18T10:25:45.362Z,76256.00
2017-09-18T10:26:45.815Z,73696.00
2017-09-18T10:28:07.464Z,71584.00
2017-09-18T10:28:46.747Z,69440.00
2017-09-18T10:29:47.209Z,9908.00
2017-09-18T10:30:47.670Z,65984.00
2017-09-18T10:31:48.137Z,32288.00
2017-09-18T10:32:48.605Z,32448.00
2017-09-18T10:34:10.231Z,76064.00
2017-09-18T10:34:49.516Z,75264.00
2017-09-18T10:35:49.982Z,76352.00
2017-09-18T10:36:50.441Z,75424.00
2017-09-18T10:37:50.898Z,53920.00
2017-09-18T10:38:51.363Z,40544.00
2017-09-18T10:40:13.012Z,67712.00
2017-09-18T10:40:52.281Z,70624.00
2017-09-18T10:41:52.744Z,64224.00
2017-09-18T10:42:53.198Z,70816.00
2017-09-18T10:43:53.667Z,60096.00
2017-09-18T10:44:54.128Z,62176.00
2017-09-18T10:46:15.762Z,57632.00
2017-09-18T10:46:55.051Z,63808.00
2017-09-18T10:47:55.521Z,71296.00
2017-09-18T10:48:55.989Z,52320.00
2017-09-18T10:49:56.440Z,50688.00
2017-09-18T10:50:56.898Z,51840.00
2017-09-18T10:52:18.542Z,53184.00
2017-09-18T10:52:57.827Z,54816.00
2017-09-18T10:53:58.285Z,54112.00
2017-09-18T10:54:58.755Z,52864.00
2017-09-18T10:55:59.220Z,54016.00
2017-09-18T10:56:59.684Z,69664.00
2017-09-18T10:58:21.341Z,68800.00
2017-09-18T10:59:00.604Z,69184.00
2017-09-18T11:00:01.099Z,71168.00
2017-09-18T11:01:01.536Z,73408.00
2017-09-18T11:02:01.995Z,72704.00
2017-09-18T11:03:02.461Z,68384.00
2017-09-18T11:04:24.093Z,61600.00
2017-09-18T11:05:03.388Z,58912.00
2017-09-18T11:06:03.856Z,59584.00
2017-09-18T11:07:04.313Z,60288.00
2017-09-18T11:08:04.779Z,59200.00
2017-09-18T11:09:05.256Z,59552.00
2017-09-18T11:10:26.878Z,56000.00
2017-09-18T11:11:06.172Z,72096.00
2017-09-18T11:12:06.666Z,68320.00
2017-09-18T11:13:07.107Z,69024.00
2017-09-18T11:14:07.574Z,67776.00
2017-09-18T11:15:08.030Z,66976.00
2017-09-18T11:16:29.672Z,68384.00
2017-09-18T11:17:08.966Z,71264.00
2017-09-18T11:18:09.436Z,73056.00
2017-09-18T11:19:09.893Z,75232.00
2017-09-18T11:20:10.358Z,75936.00
2017-09-18T11:21:10.822Z,77888.00
2017-09-18T11:22:32.479Z,78784.00
2017-09-18T11:23:11.762Z,75584.00
2017-09-18T11:24:12.220Z,73312.00
2017-09-18T11:25:12.687Z,76480.00
2017-09-18T11:26:13.156Z,74528.00
2017-09-18T11:27:13.628Z,75328.00
2017-09-18T11:28:35.272Z,70624.00
2017-09-18T11:29:14.546Z,18592.00
2017-09-18T11:30:15.022Z,12500.00
2017-09-18T11:31:15.486Z,63360.00
2017-09-18T11:32:15.945Z,80000.00
2017-09-18T11:33:16.412Z,79808.00
2017-09-18T11:34:38.041Z,16108.00
2017-09-18T11:35:17.349Z,32704.00
2017-09-18T11:36:17.799Z,16640.00
2017-09-18T11:37:18.265Z,25376.00
2017-09-18T11:38:18.725Z,12432.00
2017-09-18T11:39:19.184Z,9944.00
2017-09-18T11:40:40.818Z,10052.00
2017-09-18T11:41:20.115Z,10256.00
2017-09-18T11:42:20.562Z,10444.00
2017-09-18T11:43:21.018Z,10584.00
2017-09-18T11:44:21.491Z,9860.00
2017-09-18T11:45:21.935Z,9704.00
2017-09-18T11:46:43.550Z,9184.00
2017-09-18T11:47:22.835Z,9268.00
2017-09-18T11:48:23.293Z,9292.00
2017-09-18T11:49:23.751Z,9296.00
2017-09-18T11:50:24.196Z,9020.00
2017-09-18T11:51:24.642Z,8932.00
2017-09-18T11:52:46.255Z,8944.00
2017-09-18T11:53:25.543Z,9908.00
2017-09-18T11:54:25.986Z,11048.00
2017-09-18T11:55:26.427Z,10752.00
2017-09-18T11:56:26.877Z,11392.00
2017-09-18T11:57:27.334Z,10020.00
2017-09-18T11:58:48.944Z,9720.00
2017-09-18T11:59:28.230Z,9656.00
2017-09-18T12:00:28.660Z,9272.00
2017-09-18T12:01:29.114Z,9568.00
2017-09-18T12:02:29.554Z,9704.00
2017-09-18T12:03:29.995Z,9200.00
2017-09-18T12:04:51.603Z,8844.00
2017-09-18T12:05:30.889Z,8284.00
2017-09-18T12:06:31.346Z,9128.00
2017-09-18T12:07:31.775Z,9692.00
2017-09-18T12:08:32.227Z,9996.00
2017-09-18T12:09:32.656Z,10152.00
2017-09-18T12:10:54.271Z,10488.00
2017-09-18T12:11:33.543Z,11288.00
2017-09-18T12:12:33.993Z,10752.00
2017-09-18T12:13:34.436Z,9924.00
2017-09-18T12:14:34.888Z,8268.00
2017-09-18T12:15:35.318Z,7100.00
2017-09-18T12:16:56.927Z,6600.00
2017-09-18T12:17:36.207Z,6652.00
2017-09-18T12:18:36.662Z,7084.00
2017-09-18T12:19:37.089Z,7712.00
2017-09-18T12:20:37.533Z,8692.00
2017-09-18T12:21:37.982Z,8996.00
2017-09-18T12:22:59.595Z,9108.00
2017-09-18T12:23:38.858Z,8892.00
2017-09-18T12:24:39.297Z,8924.00
2017-09-18T12:25:39.738Z,8404.00
2017-09-18T12:26:40.187Z,7992.00
2017-09-18T12:27:40.621Z,8108.00
2017-09-18T12:29:02.231Z,8252.00
2017-09-18T12:29:41.508Z,8092.00